Time,TemperatureF,DewpointF,PressureIn,WindDirection,WindDirectionDegrees,WindSpeedMPH,WindSpeedGustMPH,Humidity,HourlyPrecipIn,Conditions,Clouds,dailyrainin,SoftwareType,DateUTC
2013-06-27 00:01:00,74.5,54.7,29.69,North,0,0.0,0.0,50,0.00,,,0.00,WUHU216HW,2013-06-27 08:01:00,
2013-06-27 00:06:00,74.2,54.4,29.70,ESE,113,0.0,0.0,50,0.00,,,0.00,WUHU216HW,2013-06-27 08:06:00,
2013-06-27 00:11:00,73.8,54.0,29.70,West,270,0.0,0.0,50,0.00,,,0.00,WUHU216HW,2013-06-27 08:11:00,
2013-06-27 00:16:00,73.4,54.2,29.70,SSE,158,0.0,0.0,51,0.00,,,0.00,WUHU216HW,2013-06-27 08:16:00,
2013-06-27 00:21:00,73.1,53.8,29.70,SSE,158,0.0,0.0,51,0.00,,,0.00,WUHU216HW,2013-06-27 08:21:00,
2013-06-27 00:26:00,72.9,53.6,29.70,SSW,203,0.0,0.0,51,0.00,,,0.00,WUHU216HW,2013-06-27 08:26:00,
2013-06-27 00:31:00,72.5,54.4,29.70,NW,315,0.0,0.0,53,0.00,,,0.00,WUHU216HW,2013-06-27 08:31:00,
2013-06-27 00:36:00,72.2,54.6,29.71,SSE,158,0.0,0.0,54,0.00,,,0.00,WUHU216HW,2013-06-27 08:36:00,
2013-06-27 00:41:00,71.8,54.7,29.71,North,0,0.0,0.0,55,0.00,,,0.00,WUHU216HW,2013-06-27 08:41:00,
2013-06-27 00:46:00,71.5,53.9,29.71,NNW,338,0.0,0.0,54,0.00,,,0.00,WUHU216HW,2013-06-27 08:46:00,
2013-06-27 00:51:00,71.1,54.1,29.71,NNW,338,0.0,0.0,55,0.00,,,0.00,WUHU216HW,2013-06-27 08:51:00,
2013-06-27 00:56:00,70.7,53.7,29.71,NNW,338,0.0,0.0,55,0.00,,,0.00,WUHU216HW,2013-06-27 08:56:00,
2013-06-27 01:01:00,70.4,53.4,29.72,NNW,338,0.0,0.0,55,0.00,,,0.00,WUHU216HW,2013-06-27 09:01:00,
2013-06-27 01:06:00,70.2,53.7,29.72,ENE,68,0.0,0.0,56,0.00,,,0.00,WUHU216HW,2013-06-27 09:06:00,
2013-06-27 01:11:00,70.0,54.1,29.72,East,90,0.0,0.0,57,0.00,,,0.00,WUHU216HW,2013-06-27 09:11:00,
2013-06-27 01:16:00,69.8,53.9,29.72,ENE,68,0.0,0.0,57,0.00,,,0.00,WUHU216HW,2013-06-27 09:16:00,
2013-06-27 01:21:00,69.5,53.1,29.72,ENE,68,0.0,0.0,56,0.00,,,0.00,WUHU216HW,2013-06-27 09:21:00,
2013-06-27 01:26:00,69.1,53.2,29.72,ENE,68,0.0,0.0,57,0.00,,,0.00,WUHU216HW,2013-06-27 09:26:00,
2013-06-27 01:31:00,68.8,55.2,29.72,East,90,0.0,0.0,62,0.00,,,0.00,WUHU216HW,2013-06-27 09:31:00,
2013-06-27 01:36:00,68.4,55.7,29.72,ESE,113,0.0,0.0,64,0.00,,,0.00,WUHU216HW,2013-06-27 09:36:00,
2013-06-27 01:41:00,68.0,54.9,29.72,ESE,113,0.0,0.0,63,0.00,,,0.00,WUHU216HW,2013-06-27 09:41:00,
2013-06-27 01:46:00,67.7,54.6,29.72,ESE,113,0.0,0.0,63,0.00,,,0.00,WUHU216HW,2013-06-27 09:46:00,
2013-06-27 01:51:00,67.3,54.3,29.72,ESE,113,0.0,0.0,63,0.00,,,0.00,WUHU216HW,2013-06-27 09:51:00,
2013-06-27 01:56:00,67.1,57.1,29.73,SE,135,0.4,0.4,70,0.00,,,0.00,WUHU216HW,2013-06-27 09:56:00,
2013-06-27 02:01:00,67.0,56.1,29.73,South,180,0.0,0.4,68,0.00,,,0.00,WUHU216HW,2013-06-27 10:01:00,
2013-06-27 02:06:00,66.8,55.9,29.73,SE,135,0.0,0.4,68,0.00,,,0.00,WUHU216HW,2013-06-27 10:06:00,
2013-06-27 02:11:00,66.4,54.7,29.73,SE,135,0.0,0.0,66,0.00,,,0.00,WUHU216HW,2013-06-27 10:11:00,
2013-06-27 02:16:00,66.1,54.7,29.73,SE,135,0.0,0.0,67,0.00,,,0.00,WUHU216HW,2013-06-27 10:16:00,
2013-06-27 02:21:00,65.9,54.2,29.73,SE,135,0.0,0.0,66,0.00,,,0.00,WUHU216HW,2013-06-27 10:21:00,
2013-06-27 02:26:00,65.7,54.0,29.73,SE,135,0.0,0.0,66,0.00,,,0.00,WUHU216HW,2013-06-27 10:26:00,
2013-06-27 02:31:00,65.5,53.8,29.73,SW,225,0.0,0.0,66,0.00,,,0.00,WUHU216HW,2013-06-27 10:31:00,
2013-06-27 02:36:00,65.3,56.4,29.74,ESE,113,0.0,0.0,73,0.00,,,0.00,WUHU216HW,2013-06-27 10:36:00,
2013-06-27 02:41:00,65.2,55.9,29.74,ESE,113,0.3,0.9,72,0.00,,,0.00,WUHU216HW,2013-06-27 10:41:00,
2013-06-27 02:46:00,65.2,56.3,29.74,SE,135,0.0,0.9,73,0.00,,,0.00,WUHU216HW,2013-06-27 10:46:00,
2013-06-27 02:51:00,65.2,56.3,29.75,SE,135,0.0,0.0,73,0.00,,,0.00,WUHU216HW,2013-06-27 10:51:00,
2013-06-27 02:56:00,65.0,55.4,29.74,SE,135,0.0,0.0,71,0.00,,,0.00,WUHU216HW,2013-06-27 10:56:00,
2013-06-27 03:01:00,64.6,55.1,29.74,SE,135,0.0,0.0,71,0.00,,,0.00,WUHU216HW,2013-06-27 11:01:00,
2013-06-27 03:06:00,64.4,56.0,29.75,SE,135,0.0,0.0,74,0.00,,,0.00,WUHU216HW,2013-06-27 11:06:00,
2013-06-27 03:11:00,64.3,55.8,29.75,East,90,0.0,0.0,74,0.00,,,0.00,WUHU216HW,2013-06-27 11:11:00,
2013-06-27 03:16:00,63.9,54.7,29.75,ESE,113,0.0,0.0,72,0.00,,,0.00,WUHU216HW,2013-06-27 11:16:00,
2013-06-27 03:21:00,63.7,56.0,29.75,ESE,113,0.0,0.0,76,0.00,,,0.00,WUHU216HW,2013-06-27 11:21:00,
2013-06-27 03:26:00,63.7,57.1,29.75,ESE,113,0.0,0.0,79,0.00,,,0.00,WUHU216HW,2013-06-27 11:26:00,
2013-06-27 03:31:00,63.5,55.8,29.75,ESE,113,0.0,0.0,76,0.00,,,0.00,WUHU216HW,2013-06-27 11:31:00,
2013-06-27 03:36:00,63.4,55.3,29.75,SE,135,0.0,0.0,75,0.00,,,0.00,WUHU216HW,2013-06-27 11:36:00,
2013-06-27 03:41:00,63.2,55.4,29.75,SE,135,0.0,0.0,76,0.00,,,0.00,WUHU216HW,2013-06-27 11:41:00,
2013-06-27 03:46:00,63.0,55.3,29.76,SE,135,0.0,0.0,76,0.00,,,0.00,WUHU216HW,2013-06-27 11:46:00,
2013-06-27 03:51:00,62.8,55.1,29.76,ENE,68,0.0,0.0,76,0.00,,,0.00,WUHU216HW,2013-06-27 11:51:00,
2013-06-27 03:56:00,62.5,54.4,29.76,ENE,68,0.0,0.0,75,0.00,,,0.00,WUHU216HW,2013-06-27 11:56:00,
2013-06-27 04:01:00,62.3,53.8,29.76,ENE,68,0.0,0.0,74,0.00,,,0.00,WUHU216HW,2013-06-27 12:01:00,
2013-06-27 04:06:00,62.3,53.5,29.76,ENE,68,0.0,0.0,73,0.00,,,0.00,WUHU216HW,2013-06-27 12:06:00,
2013-06-27 04:11:00,62.1,53.7,29.76,ENE,68,0.0,0.0,74,0.00,,,0.00,WUHU216HW,2013-06-27 12:11:00,
2013-06-27 04:16:00,61.9,53.6,29.76,ENE,68,0.0,0.0,74,0.00,,,0.00,WUHU216HW,2013-06-27 12:16:00,
2013-06-27 04:21:00,62.1,54.5,29.76,SW,225,0.0,0.0,76,0.00,,,0.00,WUHU216HW,2013-06-27 12:21:00,
2013-06-27 04:26:00,61.9,53.9,29.77,SW,225,0.0,0.0,75,0.00,,,0.00,WUHU216HW,2013-06-27 12:26:00,
2013-06-27 04:31:00,61.9,53.9,29.77,SW,225,0.0,0.0,75,0.00,,,0.00,WUHU216HW,2013-06-27 12:31:00,
2013-06-27 04:36:00,61.9,54.3,29.78,North,0,0.0,0.0,76,0.00,,,0.00,WUHU216HW,2013-06-27 12:36:00,
2013-06-27 04:41:00,61.9,54.6,29.78,SSE,158,0.0,0.0,77,0.00,,,0.00,WUHU216HW,2013-06-27 12:41:00,
2013-06-27 04:46:00,61.9,55.0,29.78,NNW,338,0.0,0.0,78,0.00,,,0.00,WUHU216HW,2013-06-27 12:46:00,
2013-06-27 04:51:00,62.1,55.9,29.78,NNW,338,0.2,0.2,80,0.00,,,0.00,WUHU216HW,2013-06-27 12:51:00,
2013-06-27 04:56:00,62.3,54.9,29.78,NW,315,0.0,0.2,77,0.00,,,0.00,WUHU216HW,2013-06-27 12:56:00,
2013-06-27 05:01:00,62.1,54.5,29.79,NW,315,0.0,0.2,76,0.00,,,0.00,WUHU216HW,2013-06-27 13:01:00,
2013-06-27 05:06:00,62.1,54.5,29.79,SE,135,0.0,0.0,76,0.00,,,0.00,WUHU216HW,2013-06-27 13:06:00,
2013-06-27 05:11:00,62.1,54.8,29.79,NW,315,0.0,0.0,77,0.00,,,0.00,WUHU216HW,2013-06-27 13:11:00,
2013-06-27 05:16:00,62.1,54.8,29.79,NW,315,0.0,0.0,77,0.00,,,0.00,WUHU216HW,2013-06-27 13:16:00,
2013-06-27 05:21:00,62.1,54.8,29.79,NW,315,0.0,0.0,77,0.00,,,0.00,WUHU216HW,2013-06-27 13:21:00,
2013-06-27 05:26:00,62.1,55.5,29.79,ESE,113,0.0,0.0,79,0.00,,,0.00,WUHU216HW,2013-06-27 13:26:00,
2013-06-27 05:31:00,62.1,55.2,29.80,NNW,338,0.0,0.0,78,0.00,,,0.00,WUHU216HW,2013-06-27 13:31:00,
2013-06-27 05:36:00,62.1,55.5,29.80,SE,135,0.0,0.0,79,0.00,,,0.00,WUHU216HW,2013-06-27 13:36:00,
2013-06-27 05:41:00,62.5,55.8,29.80,SE,135,0.0,0.0,79,0.00,,,0.00,WUHU216HW,2013-06-27 13:41:00,
2013-06-27 05:46:00,62.6,56.0,29.80,SE,135,0.0,0.0,79,0.00,,,0.00,WUHU216HW,2013-06-27 13:46:00,
2013-06-27 05:51:00,63.0,56.3,29.81,ESE,113,0.0,0.0,79,0.00,,,0.00,WUHU216HW,2013-06-27 13:51:00,
2013-06-27 05:56:00,63.4,56.3,29.81,ESE,113,0.0,0.0,78,0.00,,,0.00,WUHU216HW,2013-06-27 13:56:00,
2013-06-27 06:01:00,63.5,56.9,29.81,SE,135,0.0,0.0,79,0.00,,,0.00,WUHU216HW,2013-06-27 14:01:00,
2013-06-27 06:06:00,63.7,57.4,29.82,SE,135,0.0,0.0,80,0.00,,,0.00,WUHU216HW,2013-06-27 14:06:00,
2013-06-27 06:11:00,64.4,57.4,29.82,ESE,113,0.0,0.0,78,0.00,,,0.00,WUHU216HW,2013-06-27 14:11:00,
2013-06-27 06:16:00,65.2,57.8,29.82,NNW,338,0.0,0.0,77,0.00,,,0.00,WUHU216HW,2013-06-27 14:16:00,
2013-06-27 06:21:00,65.9,57.7,29.82,North,0,0.0,0.0,75,0.00,,,0.00,WUHU216HW,2013-06-27 14:21:00,
2013-06-27 06:26:00,66.6,58.4,29.82,SE,135,0.0,0.9,75,0.00,,,0.00,WUHU216HW,2013-06-27 14:26:00,
2013-06-27 06:31:00,67.0,58.4,29.83,North,0,0.2,0.9,74,0.00,,,0.00,WUHU216HW,2013-06-27 14:31:00,
2013-06-27 06:36:00,67.9,58.5,29.83,NNW,338,0.0,0.7,72,0.00,,,0.00,WUHU216HW,2013-06-27 14:36:00,
2013-06-27 06:41:00,68.6,58.9,29.83,NW,315,0.0,0.2,71,0.00,,,0.00,WUHU216HW,2013-06-27 14:41:00,
2013-06-27 06:46:00,69.3,58.7,29.83,WNW,293,0.0,0.7,69,0.00,,,0.00,WUHU216HW,2013-06-27 14:46:00,
2013-06-27 06:51:00,69.5,58.9,29.83,NNE,23,0.0,0.7,69,0.00,,,0.00,WUHU216HW,2013-06-27 14:51:00,
2013-06-27 06:56:00,69.1,58.5,29.84,SSW,203,0.0,0.2,69,0.00,,,0.00,WUHU216HW,2013-06-27 14:56:00,
2013-06-27 07:01:00,69.1,59.0,29.84,SE,135,0.0,0.2,70,0.00,,,0.00,WUHU216HW,2013-06-27 15:01:00,
2013-06-27 07:06:00,68.9,59.1,29.84,NW,315,0.7,0.7,71,0.00,,,0.00,WUHU216HW,2013-06-27 15:06:00,
2013-06-27 07:11:00,68.6,58.4,29.84,WSW,248,0.4,0.7,70,0.00,,,0.00,WUHU216HW,2013-06-27 15:11:00,
2013-06-27 07:16:00,68.4,58.3,29.84,WSW,248,0.4,0.7,70,0.00,,,0.00,WUHU216HW,2013-06-27 15:16:00,
2013-06-27 07:21:00,68.2,58.2,29.84,West,270,0.4,0.4,70,0.00,,,0.00,WUHU216HW,2013-06-27 15:21:00,
2013-06-27 07:26:00,68.2,58.2,29.84,WSW,248,0.4,0.4,70,0.00,,,0.00,WUHU216HW,2013-06-27 15:26:00,
2013-06-27 07:31:00,68.2,58.2,29.84,SSW,203,0.0,1.1,70,0.00,,,0.00,WUHU216HW,2013-06-27 15:31:00,
2013-06-27 07:36:00,68.0,58.0,29.85,North,0,1.1,1.1,70,0.00,,,0.00,WUHU216HW,2013-06-27 15:36:00,
2013-06-27 07:41:00,68.2,58.2,29.85,South,180,0.0,1.1,70,0.00,,,0.00,WUHU216HW,2013-06-27 15:41:00,
2013-06-27 07:46:00,68.4,58.3,29.85,ENE,68,0.0,0.0,70,0.00,,,0.00,WUHU216HW,2013-06-27 15:46:00,
2013-06-27 07:51:00,68.2,58.5,29.85,North,0,0.0,0.2,71,0.00,,,0.00,WUHU216HW,2013-06-27 15:51:00,
2013-06-27 07:56:00,68.2,58.2,29.85,North,0,0.0,0.9,70,0.00,,,0.00,WUHU216HW,2013-06-27 15:56:00,
2013-06-27 08:01:00,68.2,58.2,29.85,North,0,0.2,0.9,70,0.00,,,0.00,WUHU216HW,2013-06-27 16:01:00,
2013-06-27 08:06:00,68.2,58.5,29.85,SSW,203,0.9,0.9,71,0.00,,,0.00,WUHU216HW,2013-06-27 16:06:00,
2013-06-27 08:11:00,68.2,58.2,29.86,SW,225,0.0,1.1,70,0.00,,,0.00,WUHU216HW,2013-06-27 16:11:00,
2013-06-27 08:16:00,68.6,58.4,29.86,North,0,0.0,1.1,70,0.00,,,0.00,WUHU216HW,2013-06-27 16:16:00,
2013-06-27 08:21:00,68.9,58.8,29.86,NNW,338,0.9,0.9,70,0.00,,,0.00,WUHU216HW,2013-06-27 16:21:00,
2013-06-27 08:26:00,69.1,58.5,29.86,WSW,248,0.4,1.1,69,0.00,,,0.00,WUHU216HW,2013-06-27 16:26:00,
2013-06-27 08:31:00,69.5,58.9,29.86,SW,225,0.7,1.1,69,0.00,,,0.00,WUHU216HW,2013-06-27 16:31:00,
2013-06-27 08:36:00,70.2,58.7,29.86,SE,135,1.1,1.1,67,0.00,,,0.00,WUHU216HW,2013-06-27 16:36:00,
2013-06-27 08:41:00,70.7,58.8,29.86,North,0,0.4,1.1,66,0.00,,,0.00,WUHU216HW,2013-06-27 16:41:00,
2013-06-27 08:46:00,71.6,59.7,29.86,SSE,158,0.9,1.8,66,0.00,,,0.00,WUHU216HW,2013-06-27 16:46:00,
2013-06-27 08:51:00,72.5,59.7,29.87,South,180,2.0,2.0,64,0.00,,,0.00,WUHU216HW,2013-06-27 16:51:00,
2013-06-27 08:56:00,73.3,59.9,29.87,NW,315,0.4,2.0,63,0.00,,,0.00,WUHU216HW,2013-06-27 16:56:00,
2013-06-27 09:01:00,73.4,59.6,29.87,SW,225,0.7,1.6,62,0.00,,,0.00,WUHU216HW,2013-06-27 17:01:00,
2013-06-27 09:06:00,73.6,59.3,29.87,WSW,241,0.8,1.6,61,0.00,,,0.00,WUHU216HW,2013-06-27 17:06:00,
2013-06-27 09:11:00,73.4,59.6,29.87,SSE,158,1.1,1.6,62,0.00,,,0.00,WUHU216HW,2013-06-27 17:11:00,
2013-06-27 09:16:00,73.6,59.8,29.87,SSE,158,1.6,1.6,62,0.00,,,0.00,WUHU216HW,2013-06-27 17:16:00,
2013-06-27 09:21:00,73.3,59.4,29.87,NNW,338,1.2,2.0,62,0.00,,,0.00,WUHU216HW,2013-06-27 17:21:00,
2013-06-27 09:26:00,73.4,60.0,29.88,NW,315,0.9,2.2,63,0.00,,,0.00,WUHU216HW,2013-06-27 17:26:00,
2013-06-27 09:31:00,74.0,59.7,29.88,NE,45,1.1,2.2,61,0.00,,,0.00,WUHU216HW,2013-06-27 17:31:00,
2013-06-27 09:36:00,74.5,60.2,29.88,WNW,293,1.3,1.3,61,0.00,,,0.00,WUHU216HW,2013-06-27 17:36:00,
2013-06-27 09:41:00,74.9,60.1,29.88,WSW,248,0.7,1.6,60,0.00,,,0.00,WUHU216HW,2013-06-27 17:41:00,
2013-06-27 09:46:00,75.8,59.9,29.88,SSW,203,0.4,1.8,58,0.00,,,0.00,WUHU216HW,2013-06-27 17:46:00,
2013-06-27 09:51:00,76.3,59.9,29.88,SW,225,1.1,1.8,57,0.00,,,0.00,WUHU216HW,2013-06-27 17:51:00,
2013-06-27 09:56:00,77.0,60.1,29.88,SE,135,0.4,1.1,56,0.00,,,0.00,WUHU216HW,2013-06-27 17:56:00,
2013-06-27 10:01:00,77.4,60.0,29.88,ESE,113,1.1,1.1,55,0.00,,,0.00,WUHU216HW,2013-06-27 18:01:00,
2013-06-27 10:06:00,76.7,59.2,29.88,SSE,158,2.0,2.5,55,0.00,,,0.00,WUHU216HW,2013-06-27 18:06:00,
2013-06-27 10:11:00,76.3,59.4,29.88,West,264,0.8,2.5,56,0.00,,,0.00,WUHU216HW,2013-06-27 18:11:00,
2013-06-27 10:16:00,76.5,59.6,29.88,South,173,0.4,1.6,56,0.00,,,0.00,WUHU216HW,2013-06-27 18:16:00,
2013-06-27 10:21:00,77.4,60.0,29.88,South,180,0.7,1.6,55,0.00,,,0.00,WUHU216HW,2013-06-27 18:21:00,
2013-06-27 10:26:00,78.1,59.6,29.88,West,270,1.8,1.8,53,0.00,,,0.00,WUHU216HW,2013-06-27 18:26:00,
2013-06-27 10:31:00,78.1,60.1,29.88,WNW,290,0.8,1.8,54,0.00,,,0.00,WUHU216HW,2013-06-27 18:31:00,
2013-06-27 10:36:00,77.8,59.2,29.88,NW,315,2.2,2.2,53,0.00,,,0.00,WUHU216HW,2013-06-27 18:36:00,
2013-06-27 10:41:00,76.7,58.8,29.88,WSW,244,0.6,2.2,54,0.00,,,0.00,WUHU216HW,2013-06-27 18:41:00,
2013-06-27 10:46:00,77.4,59.4,29.88,North,0,0.0,1.8,54,0.00,,,0.00,WUHU216HW,2013-06-27 18:46:00,
2013-06-27 10:51:00,78.3,59.2,29.88,South,180,1.3,1.8,52,0.00,,,0.00,WUHU216HW,2013-06-27 18:51:00,
2013-06-27 10:56:00,77.8,59.2,29.88,SE,135,1.7,2.5,53,0.00,,,0.00,WUHU216HW,2013-06-27 18:56:00,
2013-06-27 11:01:00,77.6,59.6,29.89,ESE,113,1.1,2.5,54,0.00,,,0.00,WUHU216HW,2013-06-27 19:01:00,
2013-06-27 11:06:00,78.3,60.3,29.89,SW,225,0.7,1.1,54,0.00,,,0.00,WUHU216HW,2013-06-27 19:06:00,
2013-06-27 11:11:00,78.7,59.6,29.89,WNW,285,1.0,1.1,52,0.00,,,0.00,WUHU216HW,2013-06-27 19:11:00,
2013-06-27 11:16:00,78.1,59.0,29.89,WSW,248,2.2,2.2,52,0.00,,,0.00,WUHU216HW,2013-06-27 19:16:00,
2013-06-27 11:21:00,78.3,59.8,29.89,SW,231,0.7,2.2,53,0.00,,,0.00,WUHU216HW,2013-06-27 19:21:00,
2013-06-27 11:26:00,78.7,59.6,29.89,SE,142,1.1,1.8,52,0.00,,,0.00,WUHU216HW,2013-06-27 19:26:00,
2013-06-27 11:31:00,79.2,59.5,29.89,SSW,201,1.5,2.2,51,0.00,,,0.00,WUHU216HW,2013-06-27 19:31:00,
2013-06-27 11:36:00,78.3,59.2,29.89,ENE,66,0.8,2.9,52,0.00,,,0.00,WUHU216HW,2013-06-27 19:36:00,
2013-06-27 11:41:00,79.0,59.9,29.89,NNW,338,2.2,2.9,52,0.00,,,0.00,WUHU216HW,2013-06-27 19:41:00,
2013-06-27 11:46:00,78.8,59.2,29.89,NW,313,1.5,2.2,51,0.00,,,0.00,WUHU216HW,2013-06-27 19:46:00,
2013-06-27 11:51:00,79.7,60.6,29.89,NNW,338,2.7,2.7,52,0.00,,,0.00,WUHU216HW,2013-06-27 19:51:00,
2013-06-27 11:56:00,79.9,59.0,29.89,NNW,338,1.3,2.7,49,0.00,,,0.00,WUHU216HW,2013-06-27 19:56:00,
2013-06-27 12:01:00,79.6,59.9,29.89,NNW,329,1.0,2.7,51,0.00,,,0.00,WUHU216HW,2013-06-27 20:01:00,
2013-06-27 12:06:00,80.3,59.4,29.89,ESE,113,1.8,2.7,49,0.00,,,0.00,WUHU216HW,2013-06-27 20:06:00,
2013-06-27 12:11:00,80.3,59.4,29.89,ESE,113,1.6,2.9,49,0.00,,,0.00,WUHU216HW,2013-06-27 20:11:00,
2013-06-27 12:16:00,80.6,59.7,29.89,West,281,1.2,2.9,49,0.00,,,0.00,WUHU216HW,2013-06-27 20:16:00,
2013-06-27 12:21:00,80.3,59.4,29.89,SE,135,1.6,1.6,49,0.00,,,0.00,WUHU216HW,2013-06-27 20:21:00,
2013-06-27 12:26:00,80.3,59.4,29.89,North,0,1.3,1.6,49,0.00,,,0.00,WUHU216HW,2013-06-27 20:26:00,
2013-06-27 12:31:00,80.5,59.5,29.89,NNW,338,1.6,1.8,49,0.00,,,0.00,WUHU216HW,2013-06-27 20:31:00,
2013-06-27 12:36:00,80.3,59.4,29.89,SSE,147,0.8,1.8,49,0.00,,,0.00,WUHU216HW,2013-06-27 20:36:00,
2013-06-27 12:41:00,80.1,59.9,29.89,WSW,245,1.5,1.8,50,0.00,,,0.00,WUHU216HW,2013-06-27 20:41:00,
2013-06-27 12:46:00,79.6,58.7,29.89,South,180,2.0,2.0,49,0.00,,,0.00,WUHU216HW,2013-06-27 20:46:00,
2013-06-27 12:51:00,80.3,59.4,29.89,NNE,23,1.1,2.0,49,0.00,,,0.00,WUHU216HW,2013-06-27 20:51:00,
2013-06-27 12:56:00,80.6,59.0,29.90,NE,45,1.6,2.5,48,0.00,,,0.00,WUHU216HW,2013-06-27 20:56:00,
2013-06-27 13:01:00,81.0,59.4,29.90,WNW,293,1.1,3.1,48,0.00,,,0.00,WUHU216HW,2013-06-27 21:01:00,
2013-06-27 13:06:00,81.9,60.2,29.90,NNW,338,2.0,3.1,48,0.00,,,0.00,WUHU216HW,2013-06-27 21:06:00,
2013-06-27 13:12:00,81.9,59.0,29.90,WSW,254,1.1,2.0,46,0.00,,,0.00,WUHU216HW,2013-06-27 21:12:00,
2013-06-27 13:17:00,82.1,59.1,29.90,South,183,0.9,1.6,46,0.00,,,0.00,WUHU216HW,2013-06-27 21:17:00,
2013-06-27 13:22:00,82.8,60.4,29.90,West,270,1.1,1.1,47,0.00,,,0.00,WUHU216HW,2013-06-27 21:22:00,
2013-06-27 13:27:00,82.4,59.5,29.90,WSW,248,1.1,2.5,46,0.00,,,0.00,WUHU216HW,2013-06-27 21:27:00,
2013-06-27 13:32:00,82.6,59.7,29.90,SW,225,0.8,2.5,46,0.00,,,0.00,WUHU216HW,2013-06-27 21:32:00,
2013-06-27 13:37:00,82.8,59.2,29.90,NNW,338,1.1,1.8,45,0.00,,,0.00,WUHU216HW,2013-06-27 21:37:00,
2013-06-27 13:42:00,82.4,59.5,29.90,SE,135,1.0,1.8,46,0.00,,,0.00,WUHU216HW,2013-06-27 21:42:00,
2013-06-27 13:47:00,82.4,59.5,29.90,WSW,248,1.5,2.0,46,0.00,,,0.00,WUHU216HW,2013-06-27 21:47:00,
2013-06-27 13:52:00,83.5,60.5,29.90,West,270,0.4,2.0,46,0.00,,,0.00,WUHU216HW,2013-06-27 21:52:00,
2013-06-27 13:57:00,83.9,60.2,29.90,WSW,248,1.0,1.1,45,0.00,,,0.00,WUHU216HW,2013-06-27 21:57:00,
2013-06-27 14:02:00,83.9,59.6,29.90,WSW,248,0.4,1.6,44,0.00,,,0.00,WUHU216HW,2013-06-27 22:02:00,
2013-06-27 14:07:00,83.5,59.2,29.90,WNW,299,0.8,3.1,44,0.00,,,0.00,WUHU216HW,2013-06-27 22:07:00,
2013-06-27 14:12:00,82.1,59.1,29.90,West,263,1.3,3.1,46,0.00,,,0.00,WUHU216HW,2013-06-27 22:12:00,
2013-06-27 14:17:00,81.7,59.4,29.90,ESE,113,1.1,1.8,47,0.00,,,0.00,WUHU216HW,2013-06-27 22:17:00,
2013-06-27 14:23:00,81.9,59.6,29.91,NW,315,1.6,2.0,47,0.00,,,0.00,WUHU216HW,2013-06-27 22:23:00,
2013-06-27 14:28:00,82.1,59.1,29.91,WSW,252,1.1,2.2,46,0.00,,,0.00,WUHU216HW,2013-06-27 22:28:00,
2013-06-27 14:33:00,82.8,59.9,29.91,WNW,293,1.7,2.2,46,0.00,,,0.00,WUHU216HW,2013-06-27 22:33:00,
2013-06-27 14:38:00,83.0,59.4,29.91,ENE,68,0.9,2.2,45,0.00,,,0.00,WUHU216HW,2013-06-27 22:38:00,
2013-06-27 14:43:00,82.6,59.1,29.91,SW,224,1.1,1.6,45,0.00,,,0.00,WUHU216HW,2013-06-27 22:43:00,
2013-06-27 14:48:00,82.1,58.5,29.90,SSW,203,1.3,1.8,45,0.00,,,0.00,WUHU216HW,2013-06-27 22:48:00,
2013-06-27 14:53:00,81.9,59.0,29.90,SW,225,1.6,1.8,46,0.00,,,0.00,WUHU216HW,2013-06-27 22:53:00,
2013-06-27 14:58:00,81.7,59.4,29.90,ENE,63,0.9,1.8,47,0.00,,,0.00,WUHU216HW,2013-06-27 22:58:00,
2013-06-27 15:03:00,81.5,59.3,29.90,SE,135,1.1,1.8,47,0.00,,,0.00,WUHU216HW,2013-06-27 23:03:00,
2013-06-27 15:08:00,81.5,59.3,29.90,West,270,1.4,1.8,47,0.00,,,0.00,WUHU216HW,2013-06-27 23:08:00,
2013-06-27 15:13:00,81.4,59.1,29.90,WSW,240,0.8,1.8,47,0.00,,,0.00,WUHU216HW,2013-06-27 23:13:00,
2013-06-27 15:18:00,81.5,59.3,29.90,SSW,210,1.0,1.8,47,0.00,,,0.00,WUHU216HW,2013-06-27 23:18:00,
2013-06-27 15:23:00,82.1,59.8,29.90,NNW,338,2.7,2.7,47,0.00,,,0.00,WUHU216HW,2013-06-27 23:23:00,
2013-06-27 15:28:00,81.7,58.9,29.90,WSW,255,1.0,2.7,46,0.00,,,0.00,WUHU216HW,2013-06-27 23:28:00,
2013-06-27 15:33:00,81.9,59.0,29.90,WSW,248,1.5,2.2,46,0.00,,,0.00,WUHU216HW,2013-06-27 23:33:00,
2013-06-27 15:38:00,81.9,59.0,29.90,SSE,161,1.4,2.5,46,0.00,,,0.00,WUHU216HW,2013-06-27 23:38:00,
2013-06-27 15:44:00,82.1,59.1,29.90,North,0,1.8,2.5,46,0.00,,,0.00,WUHU216HW,2013-06-27 23:44:00,
2013-06-27 15:49:00,82.1,59.1,29.90,WNW,293,1.3,1.8,46,0.00,,,0.00,WUHU216HW,2013-06-27 23:49:00,
2013-06-27 15:55:00,82.1,58.5,29.90,NNW,345,1.3,1.8,45,0.00,,,0.00,WUHU216HW,2013-06-27 23:55:00,
2013-06-27 16:00:00,82.4,58.9,29.90,West,270,1.3,1.8,45,0.00,,,0.00,WUHU216HW,2013-06-28 00:00:00,
2013-06-27 16:05:00,83.3,59.8,29.90,West,270,1.1,2.0,45,0.00,,,0.00,WUHU216HW,2013-06-28 00:05:00,
2013-06-27 16:10:00,84.4,60.1,29.90,South,180,1.3,2.0,44,0.00,,,0.00,WUHU216HW,2013-06-28 00:10:00,
2013-06-27 16:15:00,85.5,59.9,29.90,WNW,297,1.1,1.8,42,0.00,,,0.00,WUHU216HW,2013-06-28 00:15:00,
2013-06-27 16:20:00,85.0,58.7,29.90,NNE,23,3.4,3.4,41,0.00,,,0.00,WUHU216HW,2013-06-28 00:20:00,
2013-06-27 16:25:00,83.9,58.3,29.90,NNW,348,2.0,3.4,42,0.00,,,0.00,WUHU216HW,2013-06-28 00:25:00,
2013-06-27 16:31:00,83.5,57.4,29.90,North,0,2.0,3.4,41,0.00,,,0.00,WUHU216HW,2013-06-28 00:31:00,
2013-06-27 16:36:00,83.0,57.5,29.90,WSW,248,1.3,2.7,42,0.00,,,0.00,WUHU216HW,2013-06-28 00:36:00,
2013-06-27 16:41:00,82.6,57.8,29.90,NNE,29,1.8,2.5,43,0.00,,,0.00,WUHU216HW,2013-06-28 00:41:00,
2013-06-27 16:46:00,82.4,58.2,29.90,NNW,336,0.6,2.5,44,0.00,,,0.00,WUHU216HW,2013-06-28 00:46:00,
2013-06-27 16:51:00,83.0,58.8,29.90,WSW,248,0.7,2.0,44,0.00,,,0.00,WUHU216HW,2013-06-28 00:51:00,
2013-06-27 16:56:00,83.0,58.2,29.90,WSW,248,1.3,2.9,43,0.00,,,0.00,WUHU216HW,2013-06-28 00:56:00,
2013-06-27 17:01:00,83.0,58.2,29.90,North,349,2.3,3.1,43,0.00,,,0.00,WUHU216HW,2013-06-28 01:01:00,
2013-06-27 17:06:00,83.2,59.0,29.90,South,180,1.1,3.1,44,0.00,,,0.00,WUHU216HW,2013-06-28 01:06:00,
2013-06-27 17:11:00,83.2,59.0,29.90,NNW,331,1.7,2.2,44,0.00,,,0.00,WUHU216HW,2013-06-28 01:11:00,
2013-06-27 17:16:00,83.7,58.8,29.90,WSW,256,0.9,2.2,43,0.00,,,0.00,WUHU216HW,2013-06-28 01:16:00,
2013-06-27 17:21:00,84.2,58.1,29.91,ENE,68,2.7,2.7,41,0.00,,,0.00,WUHU216HW,2013-06-28 01:21:00,
2013-06-27 17:26:00,84.2,58.1,29.91,NW,312,0.6,2.7,41,0.00,,,0.00,WUHU216HW,2013-06-28 01:26:00,
2013-06-27 17:32:00,83.9,57.7,29.91,NW,309,1.0,1.8,41,0.00,,,0.00,WUHU216HW,2013-06-28 01:32:00,
2013-06-27 17:37:00,83.7,57.6,29.91,NNW,333,1.2,1.8,41,0.00,,,0.00,WUHU216HW,2013-06-28 01:37:00,
2013-06-27 17:42:00,83.5,58.1,29.91,West,270,1.1,1.6,42,0.00,,,0.00,WUHU216HW,2013-06-28 01:42:00,
2013-06-27 17:47:00,83.3,57.9,29.91,NW,319,1.4,1.6,42,0.00,,,0.00,WUHU216HW,2013-06-28 01:47:00,
2013-06-27 17:52:00,83.2,57.7,29.91,SW,234,0.7,1.6,42,0.00,,,0.00,WUHU216HW,2013-06-28 01:52:00,
2013-06-27 17:57:00,82.8,58.0,29.91,NNW,338,0.7,1.1,43,0.00,,,0.00,WUHU216HW,2013-06-28 01:57:00,
2013-06-27 18:02:00,83.0,58.2,29.91,NNE,23,0.7,1.1,43,0.00,,,0.00,WUHU216HW,2013-06-28 02:02:00,
2013-06-27 18:07:00,83.0,58.2,29.91,West,270,0.7,0.9,43,0.00,,,0.00,WUHU216HW,2013-06-28 02:07:00,
2013-06-27 18:13:00,82.8,58.0,29.91,NW,315,3.1,3.1,43,0.00,,,0.00,WUHU216HW,2013-06-28 02:13:00,
2013-06-27 18:18:00,82.1,57.3,29.91,WNW,303,1.0,3.1,43,0.00,,,0.00,WUHU216HW,2013-06-28 02:18:00,
2013-06-27 18:23:00,81.9,57.8,29.90,WSW,239,0.9,1.6,44,0.00,,,0.00,WUHU216HW,2013-06-28 02:23:00,
2013-06-27 18:28:00,81.7,57.6,29.91,WSW,248,1.1,1.6,44,0.00,,,0.00,WUHU216HW,2013-06-28 02:28:00,
2013-06-27 18:33:00,81.5,57.4,29.91,North,0,1.3,1.3,44,0.00,,,0.00,WUHU216HW,2013-06-28 02:33:00,
2013-06-27 18:38:00,81.2,57.7,29.91,West,270,1.1,1.3,45,0.00,,,0.00,WUHU216HW,2013-06-28 02:38:00,
2013-06-27 18:43:00,81.0,58.1,29.91,South,188,1.5,2.5,46,0.00,,,0.00,WUHU216HW,2013-06-28 02:43:00,
2013-06-27 18:49:00,80.6,57.9,29.91,SW,233,1.3,2.5,46,0.00,,,0.00,WUHU216HW,2013-06-28 02:49:00,
2013-06-27 18:54:00,80.3,58.1,29.91,WSW,248,1.1,1.6,47,0.00,,,0.00,WUHU216HW,2013-06-28 02:54:00,
2013-06-27 18:59:00,80.3,58.8,29.91,WSW,248,1.3,1.3,48,0.00,,,0.00,WUHU216HW,2013-06-28 02:59:00,
2013-06-27 19:04:00,79.9,58.4,29.91,WNW,293,0.9,1.3,48,0.00,,,0.00,WUHU216HW,2013-06-28 03:04:00,
2013-06-27 19:09:00,79.9,59.0,29.92,West,273,0.8,1.1,49,0.00,,,0.00,WUHU216HW,2013-06-28 03:09:00,
2013-06-27 19:14:00,80.1,59.2,29.92,WNW,298,0.8,1.1,49,0.00,,,0.00,WUHU216HW,2013-06-28 03:14:00,
2013-06-27 19:19:00,79.7,58.9,29.92,NW,315,1.1,1.1,49,0.00,,,0.00,WUHU216HW,2013-06-28 03:19:00,
2013-06-27 19:25:00,79.6,59.3,29.92,NNW,338,1.1,1.8,50,0.00,,,0.00,WUHU216HW,2013-06-28 03:25:00,
2013-06-27 19:30:00,79.7,59.5,29.92,West,270,2.0,2.0,50,0.00,,,0.00,WUHU216HW,2013-06-28 03:30:00,
2013-06-27 19:35:00,79.7,58.9,29.92,WSW,248,0.4,2.0,49,0.00,,,0.00,WUHU216HW,2013-06-28 03:35:00,
2013-06-27 19:39:00,79.7,58.9,29.92,WSW,248,0.4,1.3,49,0.00,,,0.00,WUHU216HW,2013-06-28 03:39:00,
2013-06-27 19:45:00,79.6,58.7,29.92,NW,322,0.8,1.3,49,0.00,,,0.00,WUHU216HW,2013-06-28 03:45:00,
2013-06-27 19:50:00,79.2,59.1,29.92,ESE,113,0.3,0.9,50,0.00,,,0.00,WUHU216HW,2013-06-28 03:50:00,
2013-06-27 19:55:00,79.0,58.9,29.92,SE,135,0.4,0.9,50,0.00,,,0.00,WUHU216HW,2013-06-28 03:55:00,
2013-06-27 20:00:00,78.7,59.1,29.92,West,270,0.4,0.9,51,0.00,,,0.00,WUHU216HW,2013-06-28 04:00:00,
2013-06-27 20:01:00,78.7,59.1,29.92,West,270,0.4,0.9,51,0.00,,,0.00,WUHU216HW,2013-06-28 04:01:00,
2013-06-27 20:06:00,78.5,58.3,29.92,West,270,0.4,0.9,50,0.00,,,0.00,WUHU216HW,2013-06-28 04:06:00,
2013-06-27 20:11:00,78.5,58.3,29.92,West,270,0.0,0.7,50,0.00,,,0.00,WUHU216HW,2013-06-28 04:11:00,
2013-06-27 20:16:00,78.3,58.7,29.92,West,270,0.4,1.1,51,0.00,,,0.00,WUHU216HW,2013-06-28 04:16:00,
2013-06-27 20:21:00,78.3,58.2,29.93,SW,225,0.7,1.1,50,0.00,,,0.00,WUHU216HW,2013-06-28 04:21:00,
2013-06-27 20:26:00,78.3,58.2,29.93,North,0,0.8,1.1,50,0.00,,,0.00,WUHU216HW,2013-06-28 04:26:00,
2013-06-27 20:31:00,78.5,58.3,29.93,South,181,0.8,1.1,50,0.00,,,0.00,WUHU216HW,2013-06-28 04:31:00,
2013-06-27 20:36:00,78.3,58.2,29.93,West,270,0.0,1.1,50,0.00,,,0.00,WUHU216HW,2013-06-28 04:36:00,
2013-06-27 20:41:00,78.5,58.3,29.93,WNW,293,0.0,1.1,50,0.00,,,0.00,WUHU216HW,2013-06-28 04:41:00,
2013-06-27 20:46:00,78.8,59.2,29.93,SW,225,0.2,0.7,51,0.00,,,0.00,WUHU216HW,2013-06-28 04:46:00,
2013-06-27 20:51:00,78.7,59.1,29.93,West,270,0.4,0.4,51,0.00,,,0.00,WUHU216HW,2013-06-28 04:51:00,
2013-06-27 20:56:00,78.7,59.1,29.94,SW,225,0.4,0.4,51,0.00,,,0.00,WUHU216HW,2013-06-28 04:56:00,
2013-06-27 21:01:00,78.7,59.1,29.94,SW,225,0.0,0.4,51,0.00,,,0.00,WUHU216HW,2013-06-28 05:01:00,
2013-06-27 21:06:00,78.3,58.7,29.94,SSE,158,0.7,1.1,51,0.00,,,0.00,WUHU216HW,2013-06-28 05:06:00,
2013-06-27 21:11:00,77.9,58.9,29.94,WSW,248,0.4,1.1,52,0.00,,,0.00,WUHU216HW,2013-06-28 05:11:00,
2013-06-27 21:16:00,77.6,59.0,29.94,SE,142,0.3,0.7,53,0.00,,,0.00,WUHU216HW,2013-06-28 05:16:00,
2013-06-27 21:21:00,77.4,59.0,29.94,WSW,248,0.9,0.9,53,0.00,,,0.00,WUHU216HW,2013-06-28 05:21:00,
2013-06-27 21:26:00,77.0,58.6,29.94,West,270,0.0,1.1,53,0.00,,,0.00,WUHU216HW,2013-06-28 05:26:00,
2013-06-27 21:31:00,76.7,58.8,29.94,NW,315,0.4,1.1,54,0.00,,,0.00,WUHU216HW,2013-06-28 05:31:00,
2013-06-27 21:36:00,76.3,58.4,29.94,NW,315,0.0,0.4,54,0.00,,,0.00,WUHU216HW,2013-06-28 05:36:00,
2013-06-27 21:41:00,76.0,58.2,29.94,NNE,23,0.0,0.4,54,0.00,,,0.00,WUHU216HW,2013-06-28 05:41:00,
2013-06-27 21:46:00,75.8,58.4,29.94,SE,135,0.0,0.0,55,0.00,,,0.00,WUHU216HW,2013-06-28 05:46:00,
2013-06-27 21:51:00,75.4,58.6,29.94,SSE,158,1.1,1.1,56,0.00,,,0.00,WUHU216HW,2013-06-28 05:51:00,
2013-06-27 21:56:00,75.2,58.0,29.94,SE,135,0.2,1.1,55,0.00,,,0.00,WUHU216HW,2013-06-28 05:56:00,
2013-06-27 22:01:00,74.9,58.2,29.94,North,0,0.4,0.4,56,0.00,,,0.00,WUHU216HW,2013-06-28 06:01:00,
2013-06-27 22:06:00,74.9,58.2,29.95,SE,135,0.0,0.4,56,0.00,,,0.00,WUHU216HW,2013-06-28 06:06:00,
2013-06-27 22:11:00,74.7,58.0,29.95,WSW,248,0.0,0.4,56,0.00,,,0.00,WUHU216HW,2013-06-28 06:11:00,
2013-06-27 22:16:00,74.7,58.0,29.95,North,0,0.0,0.4,56,0.00,,,0.00,WUHU216HW,2013-06-28 06:16:00,
2013-06-27 22:21:00,74.7,58.0,29.95,NW,315,0.0,0.0,56,0.00,,,0.00,WUHU216HW,2013-06-28 06:21:00,
2013-06-27 22:26:00,74.7,58.0,29.95,South,180,0.0,0.0,56,0.00,,,0.00,WUHU216HW,2013-06-28 06:26:00,
2013-06-27 22:31:00,74.7,58.0,29.95,SSW,203,0.0,0.0,56,0.00,,,0.00,WUHU216HW,2013-06-28 06:31:00,
2013-06-27 22:36:00,74.5,57.8,29.95,SW,225,0.0,0.0,56,0.00,,,0.00,WUHU216HW,2013-06-28 06:36:00,
2013-06-27 22:41:00,74.3,57.6,29.95,West,270,0.0,0.0,56,0.00,,,0.00,WUHU216HW,2013-06-28 06:41:00,
2013-06-27 22:46:00,74.2,57.4,29.95,West,270,0.0,0.0,56,0.00,,,0.00,WUHU216HW,2013-06-28 06:46:00,
2013-06-27 22:51:00,74.0,57.7,29.95,West,270,0.0,0.0,57,0.00,,,0.00,WUHU216HW,2013-06-28 06:51:00,
2013-06-27 22:56:00,73.8,57.5,29.95,West,270,0.0,0.0,57,0.00,,,0.00,WUHU216HW,2013-06-28 06:56:00,
2013-06-27 23:01:00,73.4,57.2,29.95,West,270,0.0,0.0,57,0.00,,,0.00,WUHU216HW,2013-06-28 07:01:00,
2013-06-27 23:06:00,73.3,57.5,29.96,West,270,0.0,0.0,58,0.00,,,0.00,WUHU216HW,2013-06-28 07:06:00,
2013-06-27 23:11:00,73.1,57.9,29.96,West,270,0.0,0.0,59,0.00,,,0.00,WUHU216HW,2013-06-28 07:11:00,
2013-06-27 23:16:00,73.1,57.9,29.96,West,270,0.0,0.0,59,0.00,,,0.00,WUHU216HW,2013-06-28 07:16:00,
2013-06-27 23:41:00,71.5,57.3,29.97,SSE,158,0.0,0.0,61,0.00,,,0.00,WUHU216HW,2013-06-28 07:41:00,
2013-06-27 23:46:00,71.1,56.6,29.97,SW,225,0.0,0.7,60,0.00,,,0.00,WUHU216HW,2013-06-28 07:46:00,
2013-06-27 23:51:00,71.1,56.6,29.97,SSE,158,0.0,0.7,60,0.00,,,0.00,WUHU216HW,2013-06-28 07:51:00,
2013-06-27 23:56:00,70.9,56.4,29.97,SSE,158,0.0,0.0,60,0.00,,,0.00,WUHU216HW,2013-06-28 07:56:00,